Time;durP1;ratioP1;P1;durP2;ratioP2;P2;SDS_P1;SDS_P2;PMS_P1;PMS_P2;Temp;Humidity;BMP_temperature;BMP_pressure;BME280_temperature;BME280_humidity;BME280_pressure;Samples;Min_cycle;Max_cycle;Signal;HPM_P1;HPM_P2
2022/09/27 00:00:46;;;;;;;3.33;2.80;;;21.30;99.90;;;;;;6280572;27;84298;-63
2022/09/27 00:03:47;;;;;;;4.15;3.10;;;21.30;99.90;;;;;;6282910;27;84332;-64
2022/09/27 00:06:49;;;;;;;4.50;3.15;;;21.30;99.90;;;;;;6284920;27;83957;-63
2022/09/27 00:09:53;;;;;;;3.42;2.97;;;21.30;99.90;;;;;;6285321;27;84035;-63
2022/09/27 00:12:55;;;;;;;4.10;3.25;;;21.30;99.90;;;;;;6285418;27;83915;-63
2022/09/27 00:15:57;;;;;;;3.85;3.10;;;21.30;99.90;;;;;;6280261;27;83767;-63
2022/09/27 00:19:01;;;;;;;3.60;2.83;;;21.30;99.90;;;;;;6282891;27;84029;-63
2022/09/27 00:22:03;;;;;;;3.97;3.03;;;21.30;99.90;;;;;;6278800;27;84209;-63
2022/09/27 00:25:07;;;;;;;4.65;2.95;;;21.30;99.90;;;;;;6278915;27;85195;-63
2022/09/27 00:28:09;;;;;;;3.28;2.97;;;21.20;99.90;;;;;;6284074;27;84044;-63
2022/09/27 00:31:22;;;;;;;4.07;3.05;;;21.30;99.90;;;;;;6287088;27;84445;-63
2022/09/27 00:34:25;;;;;;;3.80;3.05;;;21.20;99.90;;;;;;6274489;27;83896;-63
2022/09/27 00:37:28;;;;;;;3.78;2.97;;;21.30;99.90;;;;;;6277163;27;83992;-63
2022/09/27 00:40:31;;;;;;;5.47;3.33;;;21.20;99.90;;;;;;6283656;27;83935;-63
2022/09/27 00:43:46;;;;;;;4.22;3.10;;;21.20;99.90;;;;;;6278319;27;84057;-63
2022/09/27 00:46:51;;;;;;;3.80;3.20;;;21.20;99.90;;;;;;6271587;27;82493;-63
2022/09/27 00:49:57;;;;;;;5.18;3.38;;;21.30;99.90;;;;;;6284181;27;84059;-63
2022/09/27 00:53:12;;;;;;;4.07;3.47;;;21.30;99.90;;;;;;6284304;27;83994;-63
2022/09/27 00:56:19;;;;;;;3.72;3.15;;;21.20;99.90;;;;;;6285187;27;84878;-63
2022/09/27 00:59:26;;;;;;;3.97;3.42;;;21.20;99.90;;;;;;6271048;27;83959;-64
2022/09/27 01:02:29;;;;;;;3.83;3.42;;;21.20;99.90;;;;;;6281092;27;84185;-63
2022/09/27 01:05:31;;;;;;;3.83;3.30;;;21.20;99.90;;;;;;6278559;27;84633;-63
2022/09/27 01:08:34;;;;;;;4.13;3.40;;;21.20;99.90;;;;;;6273037;27;84152;-63
2022/09/27 01:11:42;;;;;;;3.55;3.20;;;21.30;99.90;;;;;;6284406;27;83280;-63
2022/09/27 01:15:01;;;;;;;3.95;3.25;;;21.20;99.90;;;;;;6278896;27;84722;-63
2022/09/27 01:18:15;;;;;;;3.95;3.22;;;21.30;99.90;;;;;;6279258;27;82140;-63
2022/09/27 01:21:39;;;;;;;5.00;3.40;;;21.30;99.90;;;;;;6282738;27;83251;-63
2022/09/27 01:25:03;;;;;;;3.72;3.35;;;21.30;99.90;;;;;;6275475;27;83930;-63
2022/09/27 01:28:23;;;;;;;4.45;3.80;;;21.30;99.90;;;;;;6271826;27;85122;-63
2022/09/27 01:31:32;;;;;;;3.92;3.50;;;21.30;99.90;;;;;;6280388;27;84060;-63
2022/09/27 01:34:43;;;;;;;6.13;3.60;;;21.30;99.90;;;;;;6269397;27;84231;-63
2022/09/27 01:37:54;;;;;;;4.25;3.75;;;21.30;99.90;;;;;;6274316;27;84026;-63
2022/09/27 01:41:04;;;;;;;4.63;3.33;;;21.30;99.90;;;;;;6274886;27;84077;-63
2022/09/27 01:44:13;;;;;;;3.78;3.30;;;21.30;99.90;;;;;;6285477;27;83986;-63
2022/09/27 01:47:19;;;;;;;4.40;3.58;;;21.30;99.90;;;;;;6276831;27;83950;-63
2022/09/27 01:50:26;;;;;;;4.22;3.63;;;21.30;99.90;;;;;;6281104;27;83272;-63
2022/09/27 01:53:33;;;;;;;4.53;3.50;;;21.30;99.90;;;;;;6283433;27;84453;-63
2022/09/27 01:56:40;;;;;;;5.25;3.65;;;21.30;99.90;;;;;;6274394;27;86023;-63
2022/09/27 01:59:47;;;;;;;4.00;3.30;;;21.30;99.90;;;;;;6274623;27;85157;-63
2022/09/27 02:02:55;;;;;;;6.05;3.55;;;21.30;99.90;;;;;;6269955;27;84068;-63
2022/09/27 02:06:01;;;;;;;5.60;3.60;;;21.30;99.90;;;;;;6277611;27;84029;-63
2022/09/27 02:09:07;;;;;;;3.95;3.55;;;21.30;99.90;;;;;;6277697;27;84754;-63
2022/09/27 02:12:14;;;;;;;5.38;3.28;;;21.20;99.90;;;;;;6278348;27;83969;-63
2022/09/27 02:15:16;;;;;;;3.75;3.42;;;21.20;99.90;;;;;;6277129;27;82940;-63
2022/09/27 02:18:29;;;;;;;4.15;3.63;;;21.20;99.90;;;;;;6277743;27;83920;-63
2022/09/27 02:21:41;;;;;;;4.63;3.50;;;21.20;99.90;;;;;;6281008;27;83300;-63
2022/09/27 02:24:50;;;;;;;4.18;3.10;;;21.20;99.90;;;;;;6268104;27;84059;-63
2022/09/27 02:28:00;;;;;;;4.53;3.70;;;21.20;99.90;;;;;;6267808;27;84419;-63
2022/09/27 02:31:02;;;;;;;7.13;4.30;;;21.20;99.90;;;;;;6279786;27;84961;-63
2022/09/27 02:34:10;;;;;;;3.95;3.50;;;21.20;99.90;;;;;;6279279;27;84360;-63
2022/09/27 02:37:12;;;;;;;4.22;3.33;;;21.20;99.90;;;;;;6282521;27;84324;-63
2022/09/27 02:40:15;;;;;;;3.72;3.40;;;21.20;99.90;;;;;;6277916;27;84154;-63
2022/09/27 02:43:19;;;;;;;4.32;3.53;;;21.20;99.90;;;;;;6281622;27;84058;-63
2022/09/27 02:46:47;;;;;;;3.97;3.47;;;21.20;99.90;;;;;;6279950;27;83939;-63
2022/09/27 02:50:08;;;;;;;4.20;3.10;;;21.20;99.90;;;;;;6272280;27;84142;-63
2022/09/27 02:53:21;;;;;;;4.18;3.58;;;21.20;99.90;;;;;;6268777;27;82224;-63
2022/09/27 02:56:30;;;;;;;4.13;3.50;;;21.20;99.90;;;;;;6273937;27;84033;-63
2022/09/27 02:59:42;;;;;;;4.63;3.45;;;21.20;99.90;;;;;;6277492;27;84094;-63
2022/09/27 03:02:53;;;;;;;4.07;3.60;;;21.20;99.90;;;;;;6283324;27;85043;-63
2022/09/27 03:06:03;;;;;;;5.25;3.72;;;21.20;99.90;;;;;;6285809;27;84120;-64
2022/09/27 03:09:05;;;;;;;5.50;3.88;;;21.20;99.90;;;;;;6286424;27;82832;-63
2022/09/27 03:12:07;;;;;;;3.72;3.25;;;21.20;99.90;;;;;;6280244;27;84094;-63
2022/09/27 03:15:10;;;;;;;4.88;3.58;;;21.20;99.90;;;;;;6274600;27;84022;-63
2022/09/27 03:18:12;;;;;;;4.05;3.65;;;21.20;99.90;;;;;;6283752;27;84063;-63
2022/09/27 03:21:16;;;;;;;4.45;3.55;;;21.20;99.90;;;;;;6280721;27;82897;-63
2022/09/27 03:24:17;;;;;;;4.10;3.70;;;21.20;99.90;;;;;;6286478;27;82904;-63
2022/09/27 03:27:19;;;;;;;4.13;3.47;;;21.20;99.90;;;;;;6287206;27;84094;-63
2022/09/27 03:30:21;;;;;;;5.03;3.40;;;21.10;99.90;;;;;;6287332;27;82962;-63
2022/09/27 03:33:23;;;;;;;4.07;3.33;;;21.20;99.90;;;;;;6283592;27;84963;-63
2022/09/27 03:36:27;;;;;;;4.25;3.30;;;21.10;99.90;;;;;;6287529;27;83974;-63
2022/09/27 03:39:29;;;;;;;4.20;3.80;;;21.20;99.90;;;;;;6280342;27;84217;-63
2022/09/27 03:42:31;;;;;;;3.95;3.50;;;21.10;99.90;;;;;;6286007;27;83646;-63
2022/09/27 03:45:33;;;;;;;5.10;3.33;;;21.10;99.90;;;;;;6283745;27;83583;-63
2022/09/27 03:48:35;;;;;;;3.70;3.13;;;21.10;99.90;;;;;;6285804;27;84049;-63
2022/09/27 03:51:39;;;;;;;3.80;3.50;;;21.10;99.90;;;;;;6275598;27;84040;-63
2022/09/27 03:54:41;;;;;;;4.43;3.55;;;21.10;99.90;;;;;;6280576;27;82630;-63
2022/09/27 03:57:46;;;;;;;3.65;3.33;;;21.20;99.90;;;;;;6285080;27;83842;-63
2022/09/27 04:00:48;;;;;;;4.00;3.60;;;21.20;99.90;;;;;;6290497;27;84307;-63
2022/09/27 04:03:50;;;;;;;3.65;3.35;;;21.10;99.90;;;;;;6270701;27;84980;-63
2022/09/27 04:06:53;;;;;;;4.03;3.58;;;21.20;99.90;;;;;;6272402;27;84078;-63
2022/09/27 04:09:55;;;;;;;3.33;2.97;;;21.10;99.90;;;;;;6282210;27;84066;-63
2022/09/27 04:12:57;;;;;;;3.92;3.53;;;21.10;99.90;;;;;;6280139;27;84029;-64
2022/09/27 04:16:01;;;;;;;3.17;2.88;;;21.10;99.90;;;;;;6283708;27;82988;-63
2022/09/27 04:19:03;;;;;;;3.53;3.10;;;21.10;99.90;;;;;;6285036;27;84049;-63
2022/09/27 04:22:07;;;;;;;3.97;3.33;;;21.10;99.90;;;;;;6287134;27;84111;-63
2022/09/27 04:25:09;;;;;;;4.47;3.17;;;21.10;99.90;;;;;;6282959;27;83141;-63
2022/09/27 04:28:11;;;;;;;4.03;3.20;;;21.10;99.90;;;;;;6285919;27;84061;-63
2022/09/27 04:31:13;;;;;;;5.28;3.58;;;21.10;99.90;;;;;;6280810;27;84209;-63
2022/09/27 04:34:15;;;;;;;3.63;3.30;;;21.10;99.90;;;;;;6285207;27;83801;-64
2022/09/27 04:37:18;;;;;;;3.50;3.20;;;21.10;99.90;;;;;;6276641;27;84037;-63
2022/09/27 04:40:21;;;;;;;4.50;3.28;;;21.20;99.90;;;;;;6287207;27;83966;-64
2022/09/27 04:43:23;;;;;;;4.30;3.17;;;21.20;99.90;;;;;;6282883;27;84207;-64
2022/09/27 04:46:25;;;;;;;3.63;3.20;;;21.20;99.90;;;;;;6281364;27;84413;-63
2022/09/27 04:49:27;;;;;;;4.22;3.15;;;21.20;99.90;;;;;;6279219;27;84231;-64
2022/09/27 04:52:31;;;;;;;4.75;3.33;;;21.10;99.90;;;;;;6271276;27;84582;-63
2022/09/27 04:55:33;;;;;;;3.60;3.15;;;21.10;99.90;;;;;;6282880;27;83284;-64
2022/09/27 04:58:35;;;;;;;4.93;3.50;;;21.10;99.90;;;;;;6283881;27;83989;-64
2022/09/27 05:01:37;;;;;;;4.30;3.40;;;21.10;99.90;;;;;;6286203;27;84131;-63
2022/09/27 05:04:39;;;;;;;4.07;3.50;;;21.10;99.90;;;;;;6279548;27;84988;-64
2022/09/27 05:07:42;;;;;;;4.47;3.60;;;21.10;99.90;;;;;;6283871;27;82949;-64
2022/09/27 05:10:44;;;;;;;4.32;3.58;;;21.10;99.90;;;;;;6284612;27;84051;-63
2022/09/27 05:13:46;;;;;;;3.90;3.50;;;21.10;99.90;;;;;;6285813;27;83953;-64
2022/09/27 05:16:48;;;;;;;4.95;3.60;;;21.10;99.90;;;;;;6273759;27;82835;-63
2022/09/27 05:19:51;;;;;;;3.58;3.10;;;21.20;99.90;;;;;;6284807;27;82906;-64
2022/09/27 05:22:54;;;;;;;4.55;3.13;;;21.20;99.90;;;;;;6284464;27;84471;-64
2022/09/27 05:25:56;;;;;;;6.30;3.72;;;21.20;99.90;;;;;;6278984;27;84410;-65
2022/09/27 05:28:58;;;;;;;4.60;3.42;;;21.20;99.90;;;;;;6287630;27;84355;-64
2022/09/27 05:32:00;;;;;;;5.25;3.40;;;21.20;99.90;;;;;;6283761;27;84038;-64
2022/09/27 05:35:03;;;;;;;3.60;3.30;;;21.30;99.90;;;;;;6277331;27;86116;-64
2022/09/27 05:38:06;;;;;;;6.20;3.38;;;21.30;99.90;;;;;;6284430;27;83012;-63
2022/09/27 05:41:08;;;;;;;4.30;3.28;;;21.30;99.90;;;;;;6288353;27;84365;-64
2022/09/27 05:44:12;;;;;;;3.42;3.13;;;21.30;99.90;;;;;;6283674;27;84175;-63
2022/09/27 05:47:14;;;;;;;4.95;3.80;;;21.30;99.90;;;;;;6283814;27;83068;-64
2022/09/27 05:50:16;;;;;;;4.95;3.75;;;21.40;99.90;;;;;;6283467;27;84153;-64
2022/09/27 05:53:20;;;;;;;5.35;3.75;;;21.40;99.90;;;;;;6275255;27;84005;-64
2022/09/27 05:56:22;;;;;;;4.80;3.88;;;21.40;99.90;;;;;;6285461;27;83294;-64
2022/09/27 05:59:24;;;;;;;4.38;3.70;;;21.40;99.90;;;;;;6282511;27;82906;-64
2022/09/27 06:02:26;;;;;;;5.10;4.00;;;21.40;99.90;;;;;;6285643;27;83956;-65
2022/09/27 06:05:31;;;;;;;7.60;4.05;;;21.40;99.90;;;;;;6282025;27;84710;-65
2022/09/27 06:08:35;;;;;;;5.72;3.35;;;21.50;99.90;;;;;;6282009;27;84250;-64
2022/09/27 06:11:37;;;;;;;4.22;3.83;;;21.50;99.90;;;;;;6274138;27;84043;-66
2022/09/27 06:14:39;;;;;;;4.53;3.78;;;21.50;99.90;;;;;;6286660;27;83227;-66
2022/09/27 06:17:41;;;;;;;9.02;4.05;;;21.60;99.90;;;;;;6277281;27;84509;-66
2022/09/27 06:20:43;;;;;;;5.50;3.85;;;21.60;99.90;;;;;;6282356;27;83917;-66
2022/09/27 06:23:47;;;;;;;4.72;3.60;;;21.60;99.90;;;;;;6280785;27;83953;-66
2022/09/27 06:26:49;;;;;;;5.25;3.70;;;21.70;99.90;;;;;;6280003;27;83467;-66
2022/09/27 06:29:51;;;;;;;6.70;3.80;;;21.70;99.90;;;;;;6286533;27;83928;-65
2022/09/27 06:32:57;;;;;;;5.93;3.90;;;21.70;99.90;;;;;;6275004;27;84601;-66
2022/09/27 06:36:02;;;;;;;4.90;3.50;;;21.80;99.90;;;;;;6279013;27;85019;-66
2022/09/27 06:39:05;;;;;;;3.90;3.50;;;21.80;99.90;;;;;;6282741;27;84405;-66
2022/09/27 06:42:09;;;;;;;4.22;3.50;;;21.90;99.90;;;;;;6294892;27;84003;-66
2022/09/27 06:45:12;;;;;;;4.50;3.80;;;21.90;99.90;;;;;;6290509;27;84162;-65
2022/09/27 06:48:15;;;;;;;4.55;3.40;;;21.90;99.90;;;;;;6286465;27;83978;-65
2022/09/27 06:51:17;;;;;;;3.92;3.10;;;21.90;99.90;;;;;;6286165;27;82881;-66
2022/09/27 06:54:21;;;;;;;4.80;3.90;;;21.90;99.90;;;;;;6281337;27;84027;-65
2022/09/27 07:00:39;;;;;;;5.25;3.63;;;21.90;99.90;;;;;;6283272;27;83554;-67
2022/09/27 07:03:43;;;;;;;4.43;3.47;;;21.90;99.90;;;;;;6287046;27;84018;-67
2022/09/27 07:06:45;;;;;;;4.43;3.40;;;21.90;99.90;;;;;;6284557;27;86386;-67
2022/09/27 07:09:48;;;;;;;5.18;3.47;;;22.00;99.90;;;;;;6282816;27;84096;-66
2022/09/27 07:12:51;;;;;;;4.78;3.50;;;22.00;99.90;;;;;;6278757;27;83206;-68
2022/09/27 07:15:53;;;;;;;6.03;3.15;;;22.00;99.90;;;;;;6287625;27;84122;-67
2022/09/27 07:18:55;;;;;;;6.30;3.22;;;22.00;99.90;;;;;;6283885;27;83986;-68
2022/09/27 07:21:57;;;;;;;5.68;3.20;;;22.00;99.90;;;;;;6284752;27;84128;-67
2022/09/27 07:25:00;;;;;;;3.70;3.15;;;22.00;99.90;;;;;;6285887;27;83997;-67
2022/09/27 07:28:04;;;;;;;5.18;3.40;;;22.00;99.90;;;;;;6283492;27;83245;-67
2022/09/27 07:31:07;;;;;;;6.28;3.50;;;22.00;99.90;;;;;;6284471;27;84002;-67
2022/09/27 07:34:11;;;;;;;3.35;2.97;;;22.00;99.90;;;;;;6285711;27;84006;-67
2022/09/27 07:37:13;;;;;;;3.47;3.10;;;22.00;99.90;;;;;;6284708;27;84969;-67
2022/09/27 07:40:16;;;;;;;5.07;3.00;;;22.00;99.90;;;;;;6296026;27;84041;-68
2022/09/27 07:43:19;;;;;;;3.58;3.03;;;21.90;99.90;;;;;;6280895;27;83921;-67
2022/09/27 07:46:21;;;;;;;3.25;2.95;;;22.00;99.90;;;;;;6282213;27;83949;-67
2022/09/27 07:49:24;;;;;;;4.00;2.85;;;22.00;99.90;;;;;;6289702;27;83272;-66
2022/09/27 07:52:26;;;;;;;3.53;3.03;;;22.00;99.90;;;;;;6282156;27;84056;-67
2022/09/27 07:55:29;;;;;;;3.33;2.80;;;22.00;99.90;;;;;;6285821;27;84347;-67
2022/09/27 07:58:31;;;;;;;4.55;3.40;;;22.00;99.90;;;;;;6283624;27;82288;-67
2022/09/27 08:01:34;;;;;;;3.65;3.08;;;22.00;99.90;;;;;;6286978;27;84169;-67
2022/09/27 08:04:36;;;;;;;4.25;3.38;;;22.00;99.90;;;;;;6285144;27;84030;-68
2022/09/27 08:07:39;;;;;;;3.88;3.08;;;22.00;99.90;;;;;;6278318;27;84692;-67
2022/09/27 08:10:43;;;;;;;4.00;3.00;;;22.00;99.90;;;;;;6282739;27;82947;-67
2022/09/27 08:13:46;;;;;;;5.53;3.05;;;22.00;99.90;;;;;;6279369;27;85180;-67
2022/09/27 08:16:48;;;;;;;4.53;2.80;;;22.00;99.90;;;;;;6286168;27;84073;-65
2022/09/27 08:19:50;;;;;;;3.83;2.90;;;22.10;99.90;;;;;;6279063;27;83984;-67
2022/09/27 08:22:52;;;;;;;4.60;2.95;;;22.10;99.90;;;;;;6275488;27;83671;-66
2022/09/27 08:25:58;;;;;;;3.70;2.97;;;22.10;99.90;;;;;;6285001;27;83160;-66
2022/09/27 08:29:00;;;;;;;4.47;2.85;;;22.10;99.90;;;;;;6272222;27;83296;-66
2022/09/27 08:32:02;;;;;;;4.43;2.88;;;22.10;99.90;;;;;;6284237;27;84112;-66
2022/09/27 08:35:06;;;;;;;4.60;3.05;;;22.10;99.90;;;;;;6284411;27;83964;-66
2022/09/27 08:38:09;;;;;;;4.82;3.13;;;22.10;99.90;;;;;;6283865;27;85311;-66
2022/09/27 08:41:23;;;;;;;5.72;3.28;;;22.10;99.90;;;;;;6300222;27;84093;-66
2022/09/27 08:44:34;;;;;;;4.40;3.00;;;22.10;99.90;;;;;;6279203;27;84052;-66
2022/09/27 08:47:38;;;;;;;4.53;2.90;;;22.20;99.90;;;;;;6280640;27;83780;-66
2022/09/27 08:50:44;;;;;;;4.65;2.88;;;22.10;99.90;;;;;;6282899;27;85796;-67
2022/09/27 08:53:52;;;;;;;4.78;2.83;;;22.20;99.90;;;;;;6284616;27;84023;-67
2022/09/27 08:57:02;;;;;;;5.18;3.30;;;22.20;99.90;;;;;;6285807;27;83160;-66
2022/09/27 09:00:07;;;;;;;4.00;3.13;;;22.20;99.90;;;;;;6285507;27;82206;-67
2022/09/27 09:03:18;;;;;;;3.88;2.88;;;22.20;99.90;;;;;;6283411;27;84290;-66
2022/09/27 09:06:24;;;;;;;6.10;3.05;;;22.20;99.90;;;;;;6273430;27;84382;-67
2022/09/27 09:09:38;;;;;;;5.05;3.00;;;22.20;99.90;;;;;;6273687;27;84942;-67
2022/09/27 09:12:48;;;;;;;5.85;2.40;;;22.20;99.90;;;;;;6285953;27;84301;-67
2022/09/27 09:16:03;;;;;;;4.45;3.00;;;22.20;99.90;;;;;;6282034;27;83083;-67
2022/09/27 09:19:22;;;;;;;4.72;3.08;;;22.20;99.90;;;;;;6273698;27;82969;-67
2022/09/27 09:22:43;;;;;;;4.78;2.55;;;22.20;99.90;;;;;;6282944;27;84056;-66
2022/09/27 09:25:55;;;;;;;6.28;3.25;;;22.20;99.90;;;;;;6285063;27;84388;-67
2022/09/27 09:29:10;;;;;;;4.35;2.90;;;22.20;99.90;;;;;;6285179;27;82941;-66
2022/09/27 09:32:25;;;;;;;4.47;2.80;;;22.20;99.90;;;;;;6285199;27;83640;-66
2022/09/27 09:35:33;;;;;;;7.05;2.97;;;22.20;99.90;;;;;;6274326;27;84043;-67
2022/09/27 09:38:40;;;;;;;3.00;2.55;;;22.20;99.90;;;;;;6283977;27;84111;-66
2022/09/27 09:41:50;;;;;;;3.50;2.70;;;22.20;99.90;;;;;;6291994;27;84972;-67
2022/09/27 09:44:59;;;;;;;3.72;2.63;;;22.20;99.90;;;;;;6275322;27;82922;-67
2022/09/27 09:48:07;;;;;;;5.22;3.00;;;22.20;99.90;;;;;;6281262;27;84078;-66
2022/09/27 09:51:14;;;;;;;3.50;2.70;;;22.20;99.90;;;;;;6284018;27;82845;-67
2022/09/27 09:54:24;;;;;;;5.38;3.00;;;22.20;99.90;;;;;;6283187;27;86746;-66
2022/09/27 09:57:32;;;;;;;4.55;2.67;;;22.20;99.90;;;;;;6282155;27;84037;-66
2022/09/27 10:00:35;;;;;;;3.55;2.78;;;22.20;99.90;;;;;;6283676;27;83961;-66
2022/09/27 10:03:37;;;;;;;3.08;2.60;;;22.20;99.90;;;;;;6283467;27;83362;-67
2022/09/27 10:06:39;;;;;;;3.50;2.80;;;22.20;99.90;;;;;;6283352;27;84023;-67
2022/09/27 10:09:41;;;;;;;5.53;2.42;;;22.20;99.90;;;;;;6283549;27;84031;-66
2022/09/27 10:12:43;;;;;;;3.72;2.55;;;22.20;99.90;;;;;;6271580;27;85041;-67
2022/09/27 10:15:55;;;;;;;3.80;2.60;;;22.20;99.90;;;;;;6282473;27;84018;-66
2022/09/27 10:19:02;;;;;;;3.90;2.53;;;22.30;99.90;;;;;;6283555;27;84005;-66
2022/09/27 10:22:13;;;;;;;3.65;2.50;;;22.20;99.90;;;;;;6282597;27;84018;-66
2022/09/27 10:25:16;;;;;;;3.63;2.38;;;22.30;99.90;;;;;;6283188;27;83049;-67
2022/09/27 10:28:33;;;;;;;2.47;2.10;;;22.30;99.90;;;;;;6280247;27;84173;-66
2022/09/27 10:31:37;;;;;;;2.85;2.35;;;22.30;99.90;;;;;;6283388;27;84056;-67
2022/09/27 10:34:42;;;;;;;2.78;2.47;;;22.20;99.90;;;;;;6283918;27;81887;-67
2022/09/27 10:37:44;;;;;;;3.33;2.40;;;22.30;99.90;;;;;;6283547;27;84107;-66
2022/09/27 10:40:47;;;;;;;2.80;2.20;;;22.20;99.90;;;;;;6293849;27;84058;-66
2022/09/27 10:43:49;;;;;;;2.38;2.15;;;22.30;99.90;;;;;;6283442;27;85335;-66
2022/09/27 10:46:54;;;;;;;3.25;2.17;;;22.30;99.90;;;;;;6272071;27;84291;-67
2022/09/27 10:50:05;;;;;;;2.83;2.40;;;22.30;99.90;;;;;;6283060;27;85364;-67
2022/09/27 10:53:14;;;;;;;2.50;2.30;;;22.20;99.90;;;;;;6282944;27;82903;-67
2022/09/27 10:56:23;;;;;;;3.03;2.40;;;22.20;99.90;;;;;;6282831;27;84354;-67
2022/09/27 10:59:29;;;;;;;2.22;2.03;;;22.20;99.90;;;;;;6282132;27;84492;-67
2022/09/27 11:02:36;;;;;;;2.80;2.10;;;22.20;99.90;;;;;;6282447;27;84172;-67
2022/09/27 11:05:39;;;;;;;2.42;2.22;;;22.20;99.90;;;;;;6283356;27;82310;-67
2022/09/27 11:08:41;;;;;;;2.40;2.15;;;22.20;99.90;;;;;;6283133;27;84115;-67
2022/09/27 11:11:45;;;;;;;2.47;2.13;;;22.30;99.90;;;;;;6282168;27;83939;-67
2022/09/27 11:14:55;;;;;;;2.40;2.20;;;22.30;99.90;;;;;;6282554;27;84961;-67
2022/09/27 11:18:03;;;;;;;2.25;2.00;;;22.20;99.90;;;;;;6283253;27;84338;-66
2022/09/27 11:21:17;;;;;;;3.15;2.13;;;22.30;99.90;;;;;;6286201;27;82981;-67
2022/09/27 11:24:36;;;;;;;2.38;2.00;;;22.20;99.90;;;;;;6275273;27;83209;-67
2022/09/27 11:27:48;;;;;;;2.40;2.17;;;22.20;99.90;;;;;;6276095;27;84407;-66
2022/09/27 11:31:02;;;;;;;3.13;2.10;;;22.30;99.90;;;;;;6273806;27;84294;-67
2022/09/27 11:34:31;;;;;;;2.72;1.98;;;22.30;99.90;;;;;;6286795;27;84120;-67
2022/09/27 11:37:47;;;;;;;2.30;1.98;;;22.20;99.90;;;;;;6285314;27;83731;-67
2022/09/27 11:41:05;;;;;;;3.05;2.38;;;22.30;99.90;;;;;;6298342;27;84017;-66
2022/09/27 11:44:36;;;;;;;2.60;1.85;;;22.30;99.90;;;;;;6286347;27;84004;-67
2022/09/27 11:47:49;;;;;;;1.85;1.75;;;22.30;99.90;;;;;;6285610;27;85189;-67
2022/09/27 11:51:06;;;;;;;2.00;1.80;;;22.30;99.90;;;;;;6286608;27;84067;-67
2022/09/27 11:54:29;;;;;;;1.95;1.80;;;22.30;99.90;;;;;;6286490;27;84061;-66
2022/09/27 11:57:36;;;;;;;2.85;1.92;;;22.30;99.90;;;;;;6286657;27;84134;-67
2022/09/27 12:00:49;;;;;;;2.25;2.00;;;22.30;99.90;;;;;;6287038;27;83002;-66
2022/09/27 12:04:37;;;;;;;2.00;1.80;;;22.30;99.90;;;;;;6286497;27;83118;-66
2022/09/27 12:07:47;;;;;;;2.17;1.83;;;22.30;99.90;;;;;;6275680;27;84081;-66
2022/09/27 12:10:53;;;;;;;1.75;1.65;;;22.30;99.90;;;;;;6285661;27;83417;-66
2022/09/27 12:13:59;;;;;;;2.10;1.80;;;22.30;99.90;;;;;;6285800;27;84125;-66
2022/09/27 12:17:05;;;;;;;2.40;1.92;;;22.30;99.90;;;;;;6286135;27;84078;-66
2022/09/27 12:20:14;;;;;;;2.10;1.80;;;22.40;99.90;;;;;;6285115;27;85106;-66
2022/09/27 12:23:22;;;;;;;1.83;1.73;;;22.30;99.90;;;;;;6282756;27;84059;-67
2022/09/27 12:26:29;;;;;;;1.90;1.70;;;22.30;99.90;;;;;;6285576;27;84269;-67
2022/09/27 12:29:35;;;;;;;2.38;1.83;;;22.40;99.90;;;;;;6285939;27;83886;-66
2022/09/27 12:32:46;;;;;;;2.42;1.95;;;22.30;99.90;;;;;;6280585;27;84127;-67
2022/09/27 12:35:52;;;;;;;2.03;1.83;;;22.40;99.90;;;;;;6282005;27;84065;-66
2022/09/27 12:39:01;;;;;;;2.47;2.00;;;22.40;99.90;;;;;;6294434;27;84054;-67
2022/09/27 12:42:12;;;;;;;2.08;1.67;;;22.40;99.90;;;;;;6295038;27;83257;-67
2022/09/27 12:45:15;;;;;;;1.98;1.77;;;22.40;99.90;;;;;;6274710;27;83699;-66
2022/09/27 12:48:25;;;;;;;2.10;1.83;;;22.40;99.90;;;;;;6285090;27;84098;-67
2022/09/27 12:51:36;;;;;;;2.50;1.60;;;22.40;99.90;;;;;;6282030;27;84045;-67
2022/09/27 12:54:58;;;;;;;1.65;1.55;;;22.40;99.90;;;;;;6283776;27;84085;-67
2022/09/27 12:58:32;;;;;;;1.73;1.50;;;22.50;99.90;;;;;;6283502;27;84628;-67
2022/09/27 13:01:52;;;;;;;1.90;1.70;;;22.40;99.90;;;;;;6259413;27;84176;-67
2022/09/27 13:05:31;;;;;;;2.45;1.50;;;22.50;99.90;;;;;;6273212;27;84249;-67
2022/09/27 13:09:07;;;;;;;1.65;1.48;;;22.40;99.90;;;;;;6275538;27;84264;-67
2022/09/27 13:12:14;;;;;;;1.65;1.50;;;22.50;99.90;;;;;;6283846;27;83826;-67
2022/09/27 13:15:22;;;;;;;2.10;1.60;;;22.50;99.90;;;;;;6283319;27;83431;-67
2022/09/27 13:18:51;;;;;;;1.65;1.40;;;22.50;99.90;;;;;;6283075;27;84037;-67
2022/09/27 13:21:56;;;;;;;3.28;1.45;;;22.50;99.90;;;;;;6282581;27;83922;-67
2022/09/27 13:24:58;;;;;;;1.50;1.40;;;22.50;99.90;;;;;;6284978;27;84980;-67
2022/09/27 13:28:02;;;;;;;2.53;1.42;;;22.50;99.90;;;;;;6285151;27;84174;-67
2022/09/27 13:31:06;;;;;;;1.70;1.50;;;22.50;99.90;;;;;;6284533;27;84084;-67
2022/09/27 13:34:38;;;;;;;2.08;1.80;;;22.50;99.90;;;;;;6277754;27;84027;-67
2022/09/27 13:37:49;;;;;;;3.30;1.40;;;22.50;99.90;;;;;;6285468;27;82985;-67
2022/09/27 13:40:52;;;;;;;2.42;1.83;;;22.50;99.90;;;;;;6279358;27;83773;-67
2022/09/27 13:44:18;;;;;;;2.47;1.50;;;22.50;99.90;;;;;;6277130;27;84093;-67
2022/09/27 13:47:31;;;;;;;1.55;1.30;;;22.50;99.90;;;;;;6279776;27;81928;-67
2022/09/27 13:50:45;;;;;;;1.42;1.33;;;22.50;99.90;;;;;;6280944;27;84434;-67
2022/09/27 13:53:57;;;;;;;1.50;1.40;;;22.50;99.90;;;;;;6283432;27;84369;-67
2022/09/27 13:57:00;;;;;;;1.38;1.27;;;22.50;99.90;;;;;;6273621;27;84994;-67
2022/09/27 14:00:06;;;;;;;2.05;1.55;;;22.50;99.90;;;;;;6269346;27;83782;-67
2022/09/27 14:03:17;;;;;;;1.50;1.25;;;22.50;99.90;;;;;;6281787;27;83352;-67
2022/09/27 14:06:22;;;;;;;1.48;1.23;;;22.50;99.90;;;;;;6282703;27;82831;-68
2022/09/27 14:09:29;;;;;;;2.42;1.40;;;22.50;99.90;;;;;;6276964;27;84117;-67
2022/09/27 14:12:34;;;;;;;1.60;1.40;;;22.50;99.90;;;;;;6282422;27;84085;-67
2022/09/27 14:15:38;;;;;;;1.45;1.20;;;22.60;99.90;;;;;;6281721;27;84254;-67
2022/09/27 14:18:45;;;;;;;2.97;1.50;;;22.60;99.90;;;;;;6271293;27;82175;-67
2022/09/27 14:21:48;;;;;;;2.63;1.40;;;22.60;99.90;;;;;;6281741;27;83051;-67
2022/09/27 14:24:52;;;;;;;4.03;1.52;;;22.60;99.90;;;;;;6267897;27;84190;-66
2022/09/27 14:27:57;;;;;;;2.03;1.58;;;22.60;99.90;;;;;;6281843;27;85022;-67
2022/09/27 14:31:12;;;;;;;5.60;2.03;;;22.60;99.90;;;;;;6285296;27;82972;-67
2022/09/27 14:34:14;;;;;;;3.03;1.70;;;22.60;99.90;;;;;;6269857;27;84634;-67
2022/09/27 14:37:25;;;;;;;3.17;1.55;;;22.60;99.90;;;;;;6274096;27;84059;-67
2022/09/27 14:40:28;;;;;;;3.63;1.50;;;22.60;99.90;;;;;;6277626;27;84122;-67
2022/09/27 14:43:31;;;;;;;3.53;1.60;;;22.60;99.90;;;;;;6266776;27;85099;-67
2022/09/27 14:46:35;;;;;;;5.57;1.75;;;22.60;99.90;;;;;;6267816;27;84094;-67
2022/09/27 14:49:47;;;;;;;3.13;1.40;;;22.60;99.90;;;;;;6272938;27;83889;-67
2022/09/27 14:52:53;;;;;;;3.40;1.70;;;22.60;99.90;;;;;;6277495;27;82660;-67
2022/09/27 14:55:56;;;;;;;3.05;1.50;;;22.60;99.90;;;;;;6278238;27;84235;-66
2022/09/27 14:59:02;;;;;;;2.92;1.55;;;22.60;99.90;;;;;;6281881;27;85163;-67
2022/09/27 15:02:17;;;;;;;5.45;1.90;;;22.60;99.90;;;;;;6284321;27;84371;-67
2022/09/27 15:05:22;;;;;;;3.05;1.63;;;22.60;99.90;;;;;;6276233;27;84052;-67
2022/09/27 15:08:29;;;;;;;3.75;1.75;;;22.60;99.90;;;;;;6279688;27;83955;-66
2022/09/27 15:11:33;;;;;;;4.13;1.60;;;22.60;99.90;;;;;;6294726;27;84232;-67
2022/09/27 15:14:40;;;;;;;5.75;1.92;;;22.70;99.90;;;;;;6287196;27;84065;-66
2022/09/27 15:17:44;;;;;;;3.83;1.80;;;22.60;99.90;;;;;;6284920;27;84089;-67
2022/09/27 15:20:54;;;;;;;4.82;1.63;;;22.70;99.90;;;;;;6288314;27;83401;-67
2022/09/27 15:23:57;;;;;;;5.05;1.80;;;22.70;99.90;;;;;;6290041;27;85082;-66
2022/09/27 15:27:01;;;;;;;5.10;1.70;;;22.70;99.90;;;;;;6285918;27;84052;-68
2022/09/27 15:30:04;;;;;;;4.70;1.98;;;22.70;99.90;;;;;;6284909;27;85103;-67
2022/09/27 15:33:18;;;;;;;4.35;2.10;;;22.70;99.90;;;;;;6287973;27;84287;-68
2022/09/27 15:36:51;;;;;;;4.95;1.80;;;22.70;99.90;;;;;;6289100;27;84283;-67
2022/09/27 15:39:53;;;;;;;4.97;1.92;;;22.70;99.90;;;;;;6285237;27;84283;-67
2022/09/27 15:42:57;;;;;;;4.00;1.98;;;22.70;99.90;;;;;;6285687;27;82896;-67
2022/09/27 15:46:02;;;;;;;5.35;1.80;;;22.70;99.90;;;;;;6293424;27;84001;-68
2022/09/27 15:49:35;;;;;;;4.57;1.90;;;22.70;99.90;;;;;;6286052;27;84034;-68
2022/09/27 15:52:42;;;;;;;5.35;1.73;;;22.70;99.90;;;;;;6227790;27;82621;-68
2022/09/27 15:55:45;;;;;;;6.45;2.10;;;22.70;99.90;;;;;;6286690;27;82805;-68
2022/09/27 15:58:47;;;;;;;5.28;1.90;;;22.70;99.90;;;;;;6285479;27;84147;-68
2022/09/27 16:01:50;;;;;;;5.20;1.95;;;22.70;99.90;;;;;;6285120;27;84617;-67
2022/09/27 16:04:53;;;;;;;7.78;2.13;;;22.70;99.90;;;;;;6286571;27;84149;-68
2022/09/27 16:07:56;;;;;;;2.63;1.80;;;22.70;99.90;;;;;;6287764;27;84148;-67
2022/09/27 16:11:02;;;;;;;3.45;1.80;;;22.60;99.90;;;;;;6285962;27;84087;-68
2022/09/27 16:14:04;;;;;;;4.03;1.98;;;22.70;99.90;;;;;;6285217;27;84402;-67
2022/09/27 16:17:05;;;;;;;3.75;1.70;;;22.70;99.90;;;;;;6285867;27;84411;-67